BGR weather

Bangor International Airport
Bangor, Maine, United States

Public forecast

Using degrees Fahrenheit for public forecast. Weather courtesy of forecast.io.

Current aviation weather report (METAR) for Bangor International Airport

Retrieved 2019/11/20 12:53 UTC (22 minutes ago):

KBGR 201253Z 35009KT 8SM BKN007 OVC012 01/00 A2992 RMK AO2 SLP134 T00110000

Aviation forecast (TAF) for Bangor International Airport

Retrieved 2019/11/20 12:39 UTC (36 minutes ago):

TAF KBGR 201137Z 2012/2112 01007KT P6SM BKN009 OVC015 FM201800 01007KT P6SM OVC020 FM210300 36007KT P6SM OVC035